sensor_id;sensor_type;location;lat;lon;timestamp;pressure;altitude;pressure_sealevel;temperature;humidity
43161;BME280;40968;52.342;5.528;2022-12-10T00:01:12;100808.16;;;-2.36;83.05
43161;BME280;40968;52.342;5.528;2022-12-10T00:03:40;100853.09;;;-2.09;83.24
43161;BME280;40968;52.342;5.528;2022-12-10T00:06:09;100801.59;;;-2.57;82.89
43161;BME280;40968;52.342;5.528;2022-12-10T00:08:36;100809.25;;;-2.46;83.32
43161;BME280;40968;52.342;5.528;2022-12-10T00:11:04;100723.53;;;-2.89;82.82
43161;BME280;40968;52.342;5.528;2022-12-10T00:13:32;100848.75;;;-2.11;83.22
43161;BME280;40968;52.342;5.528;2022-12-10T00:15:59;100854.91;;;-2.11;83.32
43161;BME280;40968;52.342;5.528;2022-12-10T00:18:27;100854.91;;;-2.11;83.56
43161;BME280;40968;52.342;5.528;2022-12-10T00:20:54;100818.66;;;-2.37;83.43
43161;BME280;40968;52.342;5.528;2022-12-10T00:23:21;100844.59;;;-2.22;83.50
43161;BME280;40968;52.342;5.528;2022-12-10T00:25:48;100687.34;;;-3.15;83.24
43161;BME280;40968;52.342;5.528;2022-12-10T00:28:15;100708.16;;;-3.06;83.18
43161;BME280;40968;52.342;5.528;2022-12-10T00:30:42;100813.66;;;-2.48;83.40
43161;BME280;40968;52.342;5.528;2022-12-10T00:33:09;100802.19;;;-2.44;83.19
43161;BME280;40968;52.342;5.528;2022-12-10T00:35:37;100588.75;;;-3.65;83.23
43161;BME280;40968;52.342;5.528;2022-12-10T00:38:03;100853.13;;;-2.10;83.36
43161;BME280;40968;52.342;5.528;2022-12-10T00:40:30;100844.41;;;-2.12;83.56
43161;BME280;40968;52.342;5.528;2022-12-10T00:42:57;100548.19;;;-3.91;83.32
43161;BME280;40968;52.342;5.528;2022-12-10T00:45:24;100565.41;;;-3.79;83.35
43161;BME280;40968;52.342;5.528;2022-12-10T00:47:50;100812.50;;;-2.35;83.26
43161;BME280;40968;52.342;5.528;2022-12-10T00:50:17;100839.44;;;-2.25;83.52
43161;BME280;40968;52.342;5.528;2022-12-10T00:52:45;100829.84;;;-2.27;83.42
43161;BME280;40968;52.342;5.528;2022-12-10T00:55:12;100447.38;;;-4.59;83.27
43161;BME280;40968;52.342;5.528;2022-12-10T00:57:38;100563.94;;;-3.92;83.34
43161;BME280;40968;52.342;5.528;2022-12-10T01:00:07;100686.56;;;-3.19;83.42
43161;BME280;40968;52.342;5.528;2022-12-10T01:02:33;100596.75;;;-3.73;83.25
43161;BME280;40968;52.342;5.528;2022-12-10T01:05:01;100633.91;;;-3.52;83.17
43161;BME280;40968;52.342;5.528;2022-12-10T01:07:28;100859.38;;;-2.16;83.68
43161;BME280;40968;52.342;5.528;2022-12-10T01:09:56;100617.63;;;-3.70;83.46
43161;BME280;40968;52.342;5.528;2022-12-10T01:12:22;100543.34;;;-4.11;83.32
43161;BME280;40968;52.342;5.528;2022-12-10T01:14:49;100516.59;;;-4.27;83.29
43161;BME280;40968;52.342;5.528;2022-12-10T01:17:16;100631.69;;;-3.74;83.25
43161;BME280;40968;52.342;5.528;2022-12-10T01:19:42;100590.00;;;-3.86;83.50
43161;BME280;40968;52.342;5.528;2022-12-10T01:22:09;100819.88;;;-2.52;83.64
43161;BME280;40968;52.342;5.528;2022-12-10T01:24:36;100603.09;;;-3.86;83.39
43161;BME280;40968;52.342;5.528;2022-12-10T01:27:04;100827.69;;;-2.51;83.67
43161;BME280;40968;52.342;5.528;2022-12-10T01:29:31;100759.53;;;-2.97;83.57
43161;BME280;40968;52.342;5.528;2022-12-10T01:31:58;100893.88;;;-2.33;83.47
43161;BME280;40968;52.342;5.528;2022-12-10T01:34:25;100650.59;;;-3.56;83.63
43161;BME280;40968;52.342;5.528;2022-12-10T01:36:53;100881.31;;;-2.20;83.77
43161;BME280;40968;52.342;5.528;2022-12-10T01:39:22;100878.69;;;-2.20;83.79
43161;BME280;40968;52.342;5.528;2022-12-10T01:41:53;100880.44;;;-2.19;84.40
43161;BME280;40968;52.342;5.528;2022-12-10T01:44:57;100881.28;;;-2.17;84.28
43161;BME280;40968;52.342;5.528;2022-12-10T01:47:25;100811.94;;;-2.51;84.58
43161;BME280;40968;52.342;5.528;2022-12-10T01:49:51;100860.50;;;-2.28;84.84
43161;BME280;40968;52.342;5.528;2022-12-10T01:52:18;100769.63;;;-2.76;84.85
43161;BME280;40968;52.342;5.528;2022-12-10T01:54:46;100892.69;;;-2.18;85.17
43161;BME280;40968;52.342;5.528;2022-12-10T01:57:16;100895.03;;;-2.06;85.00
43161;BME280;40968;52.342;5.528;2022-12-10T01:59:45;100902.44;;;-2.25;85.06
43161;BME280;40968;52.342;5.528;2022-12-10T02:02:20;100907.31;;;-2.06;85.19
43161;BME280;40968;52.342;5.528;2022-12-10T02:04:56;100627.44;;;-3.79;85.16
43161;BME280;40968;52.342;5.528;2022-12-10T02:07:30;100827.66;;;-2.49;85.42
43161;BME280;40968;52.342;5.528;2022-12-10T02:10:05;100631.50;;;-3.64;85.15
43161;BME280;40968;52.342;5.528;2022-12-10T02:12:44;100602.09;;;-3.79;85.45
43161;BME280;40968;52.342;5.528;2022-12-10T02:15:15;100904.59;;;-2.02;85.71
43161;BME280;40968;52.342;5.528;2022-12-10T02:17:46;100620.25;;;-3.68;85.50
43161;BME280;40968;52.342;5.528;2022-12-10T02:20:18;100826.78;;;-2.48;85.83
43161;BME280;40968;52.342;5.528;2022-12-10T02:22:50;100874.19;;;-2.12;86.10
43161;BME280;40968;52.342;5.528;2022-12-10T02:25:20;100623.59;;;-3.63;85.85
43161;BME280;40968;52.342;5.528;2022-12-10T02:27:54;100899.16;;;-1.92;86.04
43161;BME280;40968;52.342;5.528;2022-12-10T02:30:23;100900.00;;;-1.92;85.84
43161;BME280;40968;52.342;5.528;2022-12-10T02:32:50;100796.34;;;-2.57;85.82
43161;BME280;40968;52.342;5.528;2022-12-10T02:35:21;100791.09;;;-2.57;86.12
43161;BME280;40968;52.342;5.528;2022-12-10T02:37:51;100905.25;;;-1.92;85.97
43161;BME280;40968;52.342;5.528;2022-12-10T02:40:22;100612.34;;;-3.67;85.91
43161;BME280;40968;52.342;5.528;2022-12-10T02:42:51;100842.91;;;-2.24;86.12
43161;BME280;40968;52.342;5.528;2022-12-10T02:45:21;100907.81;;;-1.87;86.47
43161;BME280;40968;52.342;5.528;2022-12-10T02:47:50;100907.81;;;-1.87;86.36
43161;BME280;40968;52.342;5.528;2022-12-10T02:50:19;100765.25;;;-2.77;86.42
43161;BME280;40968;52.342;5.528;2022-12-10T02:52:47;100811.75;;;-2.41;86.35
43161;BME280;40968;52.342;5.528;2022-12-10T02:55:14;100837.81;;;-2.30;86.62
43161;BME280;40968;52.342;5.528;2022-12-10T02:57:52;100681.31;;;-3.19;86.36
43161;BME280;40968;52.342;5.528;2022-12-10T03:00:24;100883.44;;;-1.94;86.50
43161;BME280;40968;52.342;5.528;2022-12-10T03:03:07;100630.25;;;-3.45;86.37
43161;BME280;40968;52.342;5.528;2022-12-10T03:05:43;100881.78;;;-2.00;86.75
43161;BME280;40968;52.342;5.528;2022-12-10T03:08:14;100855.84;;;-2.15;86.86
43161;BME280;40968;52.342;5.528;2022-12-10T03:10:48;100889.72;;;-2.03;86.79
43161;BME280;40968;52.342;5.528;2022-12-10T03:13:20;100893.69;;;-1.83;86.90
43161;BME280;40968;52.342;5.528;2022-12-10T03:15:49;100833.16;;;-2.19;87.09
43161;BME280;40968;52.342;5.528;2022-12-10T03:18:23;100671.53;;;-3.11;87.00
43161;BME280;40968;52.342;5.528;2022-12-10T03:20:52;100871.22;;;-1.96;87.20
43161;BME280;40968;52.342;5.528;2022-12-10T03:23:21;100861.09;;;-2.15;87.30
43161;BME280;40968;52.342;5.528;2022-12-10T03:25:50;100898.88;;;-1.80;87.15
43161;BME280;40968;52.342;5.528;2022-12-10T03:28:19;100655.91;;;-3.17;86.91
43161;BME280;40968;52.342;5.528;2022-12-10T03:30:47;100877.84;;;-1.80;87.04
43161;BME280;40968;52.342;5.528;2022-12-10T03:33:16;100834.78;;;-2.12;87.18
43161;BME280;40968;52.342;5.528;2022-12-10T03:35:45;100919.84;;;-1.78;87.09
43161;BME280;40968;52.342;5.528;2022-12-10T03:38:13;100553.38;;;-3.89;86.65
43161;BME280;40968;52.342;5.528;2022-12-10T03:40:41;100828.63;;;-2.11;87.39
43161;BME280;40968;52.342;5.528;2022-12-10T03:43:08;100851.47;;;-2.14;87.23
43161;BME280;40968;52.342;5.528;2022-12-10T03:45:35;100832.91;;;-2.07;87.13
43161;BME280;40968;52.342;5.528;2022-12-10T03:48:02;100570.31;;;-3.62;86.66
43161;BME280;40968;52.342;5.528;2022-12-10T03:50:29;100595.22;;;-3.39;86.85
43161;BME280;40968;52.342;5.528;2022-12-10T03:52:57;100902.25;;;-1.75;87.13
43161;BME280;40968;52.342;5.528;2022-12-10T03:55:23;100663.63;;;-3.08;86.88
43161;BME280;40968;52.342;5.528;2022-12-10T03:57:50;100869.16;;;-1.82;87.56
43161;BME280;40968;52.342;5.528;2022-12-10T04:00:17;100886.41;;;-1.72;87.00
43161;BME280;40968;52.342;5.528;2022-12-10T04:02:56;100854.41;;;-1.89;87.14
43161;BME280;40968;52.342;5.528;2022-12-10T04:05:33;100788.69;;;-2.27;87.15
43161;BME280;40968;52.342;5.528;2022-12-10T04:08:14;100637.78;;;-3.28;87.35
43161;BME280;40968;52.342;5.528;2022-12-10T04:10:41;100739.53;;;-2.59;87.21
43161;BME280;40968;52.342;5.528;2022-12-10T04:13:07;100872.59;;;-1.80;87.25
43161;BME280;40968;52.342;5.528;2022-12-10T04:15:52;100835.38;;;-2.01;87.25
43161;BME280;40968;52.342;5.528;2022-12-10T04:18:36;100890.94;;;-1.77;87.24
43161;BME280;40968;52.342;5.528;2022-12-10T04:21:03;100831.28;;;-2.12;87.28
43161;BME280;40968;52.342;5.528;2022-12-10T04:23:49;100740.53;;;-2.65;87.04
43161;BME280;40968;52.342;5.528;2022-12-10T04:26:33;100835.34;;;-1.97;87.24
43161;BME280;40968;52.342;5.528;2022-12-10T04:29:19;100836.22;;;-1.98;87.07
43161;BME280;40968;52.342;5.528;2022-12-10T04:31:45;100791.38;;;-2.28;86.91
43161;BME280;40968;52.342;5.528;2022-12-10T04:34:12;100565.03;;;-3.60;87.17
43161;BME280;40968;52.342;5.528;2022-12-10T04:36:39;100663.41;;;-2.98;86.83
43161;BME280;40968;52.342;5.528;2022-12-10T04:39:07;100818.25;;;-2.17;86.76
43161;BME280;40968;52.342;5.528;2022-12-10T04:41:37;100710.13;;;-2.74;87.02
43161;BME280;40968;52.342;5.528;2022-12-10T04:44:03;100807.78;;;-2.19;86.80
43161;BME280;40968;52.342;5.528;2022-12-10T04:46:30;100591.22;;;-3.57;86.70
43161;BME280;40968;52.342;5.528;2022-12-10T04:48:57;100485.75;;;-4.11;86.56
43161;BME280;40968;52.342;5.528;2022-12-10T04:51:23;100878.66;;;-1.76;87.05
43161;BME280;40968;52.342;5.528;2022-12-10T04:53:50;100853.53;;;-1.88;87.10
43161;BME280;40968;52.342;5.528;2022-12-10T04:56:18;100835.25;;;-1.94;87.02
43161;BME280;40968;52.342;5.528;2022-12-10T04:58:45;100909.19;;;-1.71;87.13
43161;BME280;40968;52.342;5.528;2022-12-10T05:01:12;100894.84;;;-1.57;87.12
43161;BME280;40968;52.342;5.528;2022-12-10T05:03:39;100595.22;;;-3.41;86.73
43161;BME280;40968;52.342;5.528;2022-12-10T05:06:08;100896.66;;;-1.59;87.15
43161;BME280;40968;52.342;5.528;2022-12-10T05:08:36;100843.16;;;-1.94;87.21
43161;BME280;40968;52.342;5.528;2022-12-10T05:11:05;100765.50;;;-2.47;87.00
43161;BME280;40968;52.342;5.528;2022-12-10T05:13:33;100882.91;;;-1.71;86.99
43161;BME280;40968;52.342;5.528;2022-12-10T05:16:01;100819.13;;;-2.17;86.99
43161;BME280;40968;52.342;5.528;2022-12-10T05:18:29;100902.06;;;-1.65;87.33
43161;BME280;40968;52.342;5.528;2022-12-10T05:20:58;100898.53;;;-1.64;86.98
43161;BME280;40968;52.342;5.528;2022-12-10T05:23:25;100738.63;;;-2.57;87.21
43161;BME280;40968;52.342;5.528;2022-12-10T05:26:00;100847.53;;;-1.95;87.26
43161;BME280;40968;52.342;5.528;2022-12-10T05:28:28;100897.59;;;-1.62;87.29
43161;BME280;40968;52.342;5.528;2022-12-10T05:30:57;100855.47;;;-1.96;86.78
43161;BME280;40968;52.342;5.528;2022-12-10T05:33:25;100760.19;;;-2.42;87.14
43161;BME280;40968;52.342;5.528;2022-12-10T05:35:53;100807.69;;;-2.14;87.13
43161;BME280;40968;52.342;5.528;2022-12-10T05:38:20;100437.44;;;-4.40;86.52
43161;BME280;40968;52.342;5.528;2022-12-10T05:40:47;100643.72;;;-3.20;86.65
43161;BME280;40968;52.342;5.528;2022-12-10T05:43:15;100805.25;;;-2.23;87.18
43161;BME280;40968;52.342;5.528;2022-12-10T05:45:42;100845.28;;;-2.12;86.68
43161;BME280;40968;52.342;5.528;2022-12-10T05:48:10;100817.56;;;-2.25;86.97
43161;BME280;40968;52.342;5.528;2022-12-10T05:50:38;100914.31;;;-1.64;86.95
43161;BME280;40968;52.342;5.528;2022-12-10T05:53:05;100691.34;;;-2.97;86.70
43161;BME280;40968;52.342;5.528;2022-12-10T05:55:32;100552.41;;;-3.82;86.64
43161;BME280;40968;52.342;5.528;2022-12-10T05:57:59;100640.41;;;-3.28;86.71
43161;BME280;40968;52.342;5.528;2022-12-10T06:00:26;100910.91;;;-1.70;86.55
43161;BME280;40968;52.342;5.528;2022-12-10T06:02:53;100917.03;;;-1.69;86.87
43161;BME280;40968;52.342;5.528;2022-12-10T06:05:22;100785.66;;;-2.49;86.84
43161;BME280;40968;52.342;5.528;2022-12-10T06:07:48;100864.63;;;-2.16;86.73
43161;BME280;40968;52.342;5.528;2022-12-10T06:10:15;100859.22;;;-2.08;86.40
43161;BME280;40968;52.342;5.528;2022-12-10T06:12:42;100920.59;;;-1.72;86.53
43161;BME280;40968;52.342;5.528;2022-12-10T06:15:09;100489.59;;;-4.30;86.36
43161;BME280;40968;52.342;5.528;2022-12-10T06:17:36;100865.41;;;-2.11;86.72
43161;BME280;40968;52.342;5.528;2022-12-10T06:20:03;100883.75;;;-2.09;86.67
43161;BME280;40968;52.342;5.528;2022-12-10T06:22:33;100871.47;;;-2.09;86.49
43161;BME280;40968;52.342;5.528;2022-12-10T06:25:00;100589.03;;;-3.80;86.40
43161;BME280;40968;52.342;5.528;2022-12-10T06:27:29;100856.03;;;-2.24;86.36
43161;BME280;40968;52.342;5.528;2022-12-10T06:29:56;100910.56;;;-1.93;86.77
43161;BME280;40968;52.342;5.528;2022-12-10T06:32:22;100832.97;;;-2.52;86.78
43161;BME280;40968;52.342;5.528;2022-12-10T06:34:49;100622.88;;;-3.70;86.55
43161;BME280;40968;52.342;5.528;2022-12-10T06:37:16;100669.44;;;-3.39;86.66
43161;BME280;40968;52.342;5.528;2022-12-10T06:39:44;100937.31;;;-1.76;86.87
43161;BME280;40968;52.342;5.528;2022-12-10T06:42:11;100851.94;;;-2.38;86.80
43161;BME280;40968;52.342;5.528;2022-12-10T06:44:37;100717.72;;;-3.04;86.57
43161;BME280;40968;52.342;5.528;2022-12-10T06:47:04;100619.25;;;-3.62;86.57
43161;BME280;40968;52.342;5.528;2022-12-10T06:49:31;100842.22;;;-2.33;86.56
43161;BME280;40968;52.342;5.528;2022-12-10T06:51:58;100941.69;;;-1.75;86.66
43161;BME280;40968;52.342;5.528;2022-12-10T06:54:25;100885.50;;;-2.10;86.60
43161;BME280;40968;52.342;5.528;2022-12-10T06:56:53;100941.69;;;-1.75;86.98
43161;BME280;40968;52.342;5.528;2022-12-10T06:59:20;100884.59;;;-2.09;86.75
43161;BME280;40968;52.342;5.528;2022-12-10T07:01:47;100640.13;;;-3.59;86.71
43161;BME280;40968;52.342;5.528;2022-12-10T07:04:13;100772.38;;;-2.84;86.51
43161;BME280;40968;52.342;5.528;2022-12-10T07:06:41;100921.16;;;-1.98;86.58
43161;BME280;40968;52.342;5.528;2022-12-10T07:09:07;100966.22;;;-1.76;86.65
43161;BME280;40968;52.342;5.528;2022-12-10T07:11:35;100901.53;;;-2.22;86.61
43161;BME280;40968;52.342;5.528;2022-12-10T07:14:04;100606.75;;;-3.95;86.38
43161;BME280;40968;52.342;5.528;2022-12-10T07:16:32;100778.44;;;-2.80;86.76
43161;BME280;40968;52.342;5.528;2022-12-10T07:19:00;100911.56;;;-2.01;86.68
43161;BME280;40968;52.342;5.528;2022-12-10T07:21:30;100822.66;;;-2.61;86.58
43161;BME280;40968;52.342;5.528;2022-12-10T07:24:00;100986.16;;;-1.65;86.53
43161;BME280;40968;52.342;5.528;2022-12-10T07:26:29;100982.03;;;-1.77;86.71
43161;BME280;40968;52.342;5.528;2022-12-10T07:28:57;100932.47;;;-1.94;86.52
43161;BME280;40968;52.342;5.528;2022-12-10T07:31:26;101001.19;;;-1.72;86.61
43161;BME280;40968;52.342;5.528;2022-12-10T07:33:54;101000.06;;;-1.60;86.62
43161;BME280;40968;52.342;5.528;2022-12-10T07:36:22;100801.09;;;-2.76;86.60
43161;BME280;40968;52.342;5.528;2022-12-10T07:38:49;100993.97;;;-1.61;86.34
43161;BME280;40968;52.342;5.528;2022-12-10T07:41:15;100949.75;;;-1.84;86.73
43161;BME280;40968;52.342;5.528;2022-12-10T07:43:43;100756.13;;;-3.01;86.33
43161;BME280;40968;52.342;5.528;2022-12-10T07:46:12;100942.00;;;-1.90;86.53
43161;BME280;40968;52.342;5.528;2022-12-10T07:48:42;100990.41;;;-1.58;86.55
43161;BME280;40968;52.342;5.528;2022-12-10T07:51:08;100884.06;;;-2.25;86.53
43161;BME280;40968;52.342;5.528;2022-12-10T07:53:35;100913.41;;;-2.06;86.59
43161;BME280;40968;52.342;5.528;2022-12-10T07:56:02;100728.38;;;-3.13;86.27
43161;BME280;40968;52.342;5.528;2022-12-10T07:58:30;100918.69;;;-2.06;86.36
43161;BME280;40968;52.342;5.528;2022-12-10T08:00:57;100877.13;;;-2.27;86.58
43161;BME280;40968;52.342;5.528;2022-12-10T08:03:24;101012.31;;;-1.59;86.58
43161;BME280;40968;52.342;5.528;2022-12-10T08:06:01;101005.53;;;-1.70;86.44
43161;BME280;40968;52.342;5.528;2022-12-10T08:08:28;100881.50;;;-2.28;86.73
43161;BME280;40968;52.342;5.528;2022-12-10T08:10:55;100991.66;;;-1.76;86.81
43161;BME280;40968;52.342;5.528;2022-12-10T08:13:22;100904.84;;;-2.14;86.41
43161;BME280;40968;52.342;5.528;2022-12-10T08:15:48;101005.97;;;-1.49;86.98
43161;BME280;40968;52.342;5.528;2022-12-10T08:18:15;100776.72;;;-2.81;86.61
43161;BME280;40968;52.342;5.528;2022-12-10T08:20:42;100784.47;;;-2.75;86.43
43161;BME280;40968;52.342;5.528;2022-12-10T08:23:10;101018.03;;;-1.40;86.52
43161;BME280;40968;52.342;5.528;2022-12-10T08:25:36;101032.97;;;-1.41;86.39
43161;BME280;40968;52.342;5.528;2022-12-10T08:28:03;101011.94;;;-1.41;86.33
43161;BME280;40968;52.342;5.528;2022-12-10T08:30:30;101012.78;;;-1.40;86.37
43161;BME280;40968;52.342;5.528;2022-12-10T08:32:57;101009.28;;;-1.41;86.47
43161;BME280;40968;52.342;5.528;2022-12-10T08:35:24;100984.22;;;-1.56;86.40
43161;BME280;40968;52.342;5.528;2022-12-10T08:37:51;100756.94;;;-2.99;86.35
43161;BME280;40968;52.342;5.528;2022-12-10T08:40:19;100925.66;;;-2.05;86.41
43161;BME280;40968;52.342;5.528;2022-12-10T08:42:45;100778.66;;;-2.92;86.03
43161;BME280;40968;52.342;5.528;2022-12-10T08:45:12;101030.44;;;-1.45;85.96
43161;BME280;40968;52.342;5.528;2022-12-10T08:47:39;101033.94;;;-1.45;86.44
43161;BME280;40968;52.342;5.528;2022-12-10T08:50:06;101002.81;;;-1.65;86.40
43161;BME280;40968;52.342;5.528;2022-12-10T08:52:33;100916.25;;;-2.15;85.90
43161;BME280;40968;52.342;5.528;2022-12-10T08:55:00;100978.56;;;-1.78;86.35
43161;BME280;40968;52.342;5.528;2022-12-10T08:57:28;101045.22;;;-1.40;86.48
43161;BME280;40968;52.342;5.528;2022-12-10T08:59:55;101024.38;;;-1.49;86.29
43161;BME280;40968;52.342;5.528;2022-12-10T09:02:21;100950.94;;;-1.97;86.08
43161;BME280;40968;52.342;5.528;2022-12-10T09:04:49;100805.56;;;-2.81;85.90
43161;BME280;40968;52.342;5.528;2022-12-10T09:07:16;100727.75;;;-3.26;85.94
43161;BME280;40968;52.342;5.528;2022-12-10T09:09:43;100759.06;;;-3.18;86.15
43161;BME280;40968;52.342;5.528;2022-12-10T09:12:09;101059.19;;;-1.38;86.13
43161;BME280;40968;52.342;5.528;2022-12-10T09:14:37;100991.72;;;-1.81;86.22
43161;BME280;40968;52.342;5.528;2022-12-10T09:17:05;100806.63;;;-2.91;85.59
43161;BME280;40968;52.342;5.528;2022-12-10T09:19:32;100927.66;;;-2.18;85.72
43161;BME280;40968;52.342;5.528;2022-12-10T09:21:59;101067.25;;;-1.45;85.52
43161;BME280;40968;52.342;5.528;2022-12-10T09:24:26;101034.16;;;-1.57;85.93
43161;BME280;40968;52.342;5.528;2022-12-10T09:26:52;100832.66;;;-2.79;85.80
43161;BME280;40968;52.342;5.528;2022-12-10T09:29:19;101060.38;;;-1.53;85.76
43161;BME280;40968;52.342;5.528;2022-12-10T09:31:50;101010.00;;;-1.75;86.02
43161;BME280;40968;52.342;5.528;2022-12-10T09:34:17;101067.06;;;-1.36;85.95
43161;BME280;40968;52.342;5.528;2022-12-10T09:36:44;101067.06;;;-1.36;85.97
43161;BME280;40968;52.342;5.528;2022-12-10T09:39:11;101058.47;;;-1.46;85.88
43161;BME280;40968;52.342;5.528;2022-12-10T09:41:56;101024.06;;;-1.77;85.83
43161;BME280;40968;52.342;5.528;2022-12-10T09:44:36;100740.47;;;-3.54;85.73
43161;BME280;40968;52.342;5.528;2022-12-10T09:47:08;100827.41;;;-2.79;85.76
43161;BME280;40968;52.342;5.528;2022-12-10T09:49:38;101078.19;;;-1.25;85.66
43161;BME280;40968;52.342;5.528;2022-12-10T09:52:12;101063.53;;;-1.37;85.67
43161;BME280;40968;52.342;5.528;2022-12-10T09:54:43;100789.44;;;-3.06;85.53
43161;BME280;40968;52.342;5.528;2022-12-10T09:57:19;101067.16;;;-1.41;85.50
43161;BME280;40968;52.342;5.528;2022-12-10T09:59:48;101042.13;;;-1.60;85.87
43161;BME280;40968;52.342;5.528;2022-12-10T10:02:21;101070.59;;;-1.37;85.79
43161;BME280;40968;52.342;5.528;2022-12-10T10:04:49;100788.56;;;-3.07;85.22
43161;BME280;40968;52.342;5.528;2022-12-10T10:07:19;100819.72;;;-2.88;85.29
43161;BME280;40968;52.342;5.528;2022-12-10T10:09:47;101080.16;;;-1.35;85.25
43161;BME280;40968;52.342;5.528;2022-12-10T10:12:15;101106.28;;;-1.25;84.97
43161;BME280;40968;52.342;5.528;2022-12-10T10:14:44;101108.97;;;-1.28;84.91
43161;BME280;40968;52.342;5.528;2022-12-10T10:17:15;101094.97;;;-1.30;85.57
43161;BME280;40968;52.342;5.528;2022-12-10T10:19:45;100842.47;;;-2.90;85.17
43161;BME280;40968;52.342;5.528;2022-12-10T10:22:12;100957.31;;;-2.11;85.52
43161;BME280;40968;52.342;5.528;2022-12-10T10:24:42;100868.09;;;-2.58;85.53
43161;BME280;40968;52.342;5.528;2022-12-10T10:27:13;101089.53;;;-1.21;85.23
43161;BME280;40968;52.342;5.528;2022-12-10T10:29:41;101095.63;;;-1.19;85.55
43161;BME280;40968;52.342;5.528;2022-12-10T10:32:14;101050.72;;;-1.51;85.38
43161;BME280;40968;52.342;5.528;2022-12-10T10:34:42;101039.25;;;-1.48;85.24
43161;BME280;40968;52.342;5.528;2022-12-10T10:37:16;100826.47;;;-2.76;84.98
43161;BME280;40968;52.342;5.528;2022-12-10T10:39:49;100794.56;;;-3.02;84.96
43161;BME280;40968;52.342;5.528;2022-12-10T10:42:26;101048.94;;;-1.50;85.27
43161;BME280;40968;52.342;5.528;2022-12-10T10:44:53;101085.28;;;-1.27;85.33
43161;BME280;40968;52.342;5.528;2022-12-10T10:47:26;100983.97;;;-1.86;85.11
43161;BME280;40968;52.342;5.528;2022-12-10T10:49:53;101095.69;;;-1.22;85.42
43161;BME280;40968;52.342;5.528;2022-12-10T10:52:22;101099.19;;;-1.23;85.25
43161;BME280;40968;52.342;5.528;2022-12-10T10:54:49;101088.84;;;-1.29;85.14
43161;BME280;40968;52.342;5.528;2022-12-10T10:57:19;100780.78;;;-3.11;84.99
43161;BME280;40968;52.342;5.528;2022-12-10T10:59:49;101085.34;;;-1.31;85.17
43161;BME280;40968;52.342;5.528;2022-12-10T11:02:20;100775.44;;;-3.07;85.08
43161;BME280;40968;52.342;5.528;2022-12-10T11:04:51;100988.34;;;-1.86;85.25
43161;BME280;40968;52.342;5.528;2022-12-10T11:07:32;101093.00;;;-1.21;85.21
43161;BME280;40968;52.342;5.528;2022-12-10T11:10:00;101074.84;;;-1.31;85.13
43161;BME280;40968;52.342;5.528;2022-12-10T11:12:34;101099.03;;;-1.15;85.64
43161;BME280;40968;52.342;5.528;2022-12-10T11:15:21;100837.50;;;-2.59;85.46
43161;BME280;40968;52.342;5.528;2022-12-10T11:17:54;101095.31;;;-1.05;85.71
43161;BME280;40968;52.342;5.528;2022-12-10T11:20:24;101030.34;;;-1.41;85.41
43161;BME280;40968;52.342;5.528;2022-12-10T11:22:54;101016.28;;;-1.40;84.89
43161;BME280;40968;52.342;5.528;2022-12-10T11:25:35;100949.75;;;-1.84;85.36
43161;BME280;40968;52.342;5.528;2022-12-10T11:28:12;100929.75;;;-1.91;85.24
43161;BME280;40968;52.342;5.528;2022-12-10T11:30:49;100956.56;;;-1.74;85.06
43161;BME280;40968;52.342;5.528;2022-12-10T11:33:24;100855.41;;;-2.37;84.76
43161;BME280;40968;52.342;5.528;2022-12-10T11:36:00;101085.69;;;-1.05;85.63
43161;BME280;40968;52.342;5.528;2022-12-10T11:38:41;101063.09;;;-1.15;85.04
43161;BME280;40968;52.342;5.528;2022-12-10T11:41:18;101062.13;;;-1.11;84.89
43161;BME280;40968;52.342;5.528;2022-12-10T11:44:13;100852.72;;;-2.33;85.47
43161;BME280;40968;52.342;5.528;2022-12-10T11:47:01;100961.75;;;-1.71;85.64
43161;BME280;40968;52.342;5.528;2022-12-10T11:49:36;101079.28;;;-0.94;85.72
43161;BME280;40968;52.342;5.528;2022-12-10T11:52:10;100790.41;;;-2.67;85.28
43161;BME280;40968;52.342;5.528;2022-12-10T11:54:53;101088.88;;;-0.92;85.45
43161;BME280;40968;52.342;5.528;2022-12-10T11:57:28;101084.50;;;-0.91;85.25
43161;BME280;40968;52.342;5.528;2022-12-10T12:00:02;101082.75;;;-0.92;85.19
43161;BME280;40968;52.342;5.528;2022-12-10T12:02:55;101001.28;;;-1.35;85.03
43161;BME280;40968;52.342;5.528;2022-12-10T12:05:39;101047.19;;;-1.10;85.08
43161;BME280;40968;52.342;5.528;2022-12-10T12:08:18;101083.56;;;-0.89;85.10
43161;BME280;40968;52.342;5.528;2022-12-10T12:10:59;100938.94;;;-1.69;85.03
43161;BME280;40968;52.342;5.528;2022-12-10T12:13:33;100954.41;;;-1.56;85.32
43161;BME280;40968;52.342;5.528;2022-12-10T12:16:03;100990.63;;;-1.28;85.33
43161;BME280;40968;52.342;5.528;2022-12-10T12:18:39;101079.78;;;-0.77;85.12
43161;BME280;40968;52.342;5.528;2022-12-10T12:21:10;101006.00;;;-1.10;85.00
43161;BME280;40968;52.342;5.528;2022-12-10T12:23:43;101002.94;;;-1.30;85.22
43161;BME280;40968;52.342;5.528;2022-12-10T12:26:15;101081.47;;;-0.74;84.58
43161;BME280;40968;52.342;5.528;2022-12-10T12:28:46;100940.47;;;-1.60;84.90
43161;BME280;40968;52.342;5.528;2022-12-10T12:31:20;101089.41;;;-0.76;85.22
43161;BME280;40968;52.342;5.528;2022-12-10T12:33:51;101094.69;;;-0.76;84.98
43161;BME280;40968;52.342;5.528;2022-12-10T12:36:22;100907.13;;;-1.97;84.76
43161;BME280;40968;52.342;5.528;2022-12-10T12:38:55;100847.28;;;-2.23;84.50
43161;BME280;40968;52.342;5.528;2022-12-10T12:41:32;101079.78;;;-0.77;84.57
43161;BME280;40968;52.342;5.528;2022-12-10T12:44:07;100920.50;;;-1.67;84.48
43161;BME280;40968;52.342;5.528;2022-12-10T12:46:40;100981.94;;;-1.32;84.84
43161;BME280;40968;52.342;5.528;2022-12-10T12:49:13;100817.81;;;-2.38;84.28
43161;BME280;40968;52.342;5.528;2022-12-10T12:51:44;101013.13;;;-1.15;84.55
43161;BME280;40968;52.342;5.528;2022-12-10T12:54:12;101048.00;;;-1.07;84.60
43161;BME280;40968;52.342;5.528;2022-12-10T12:56:55;101017.66;;;-1.22;84.73
43161;BME280;40968;52.342;5.528;2022-12-10T12:59:36;101020.88;;;-1.10;84.74
43161;BME280;40968;52.342;5.528;2022-12-10T13:02:17;101014.09;;;-1.19;84.37
43161;BME280;40968;52.342;5.528;2022-12-10T13:04:46;101083.16;;;-0.72;84.41